Time;durP1;ratioP1;P1;durP2;ratioP2;P2;SDS_P1;SDS_P2;PMS_P1;PMS_P2;Temp;Humidity;BMP_temperature;BMP_pressure;BME280_temperature;BME280_humidity;BME280_pressure;Samples;Min_cycle;Max_cycle;Signal;HPM_P1;HPM_P2
2023/02/09 00:01:53;;;;;;;39.78;23.52;;;;;;;;;;10336704;28;20071;-72
2023/02/09 00:06:51;;;;;;;117.28;60.10;;;;;;;;;;10335496;28;20076;-71
2023/02/09 00:17:07;;;;;;;35.15;23.02;;;;;;;;;;10339503;28;20072;-71
2023/02/09 00:22:05;;;;;;;36.88;24.00;;;;;;;;;;10338569;28;20068;-72
2023/02/09 00:27:05;;;;;;;38.13;23.13;;;;;;;;;;10337586;28;20291;-71
2023/02/09 00:32:03;;;;;;;36.65;22.30;;;;;;;;;;10334315;28;20079;-71
2023/02/09 00:37:02;;;;;;;38.28;22.15;;;;;;;;;;10338388;28;20457;-72
2023/02/09 00:42:07;;;;;;;47.47;27.92;;;;;;;;;;10317214;28;20079;-71
2023/02/09 00:47:08;;;;;;;67.65;35.90;;;;;;;;;;10334064;28;20075;-71
2023/02/09 00:52:06;;;;;;;91.45;52.00;;;;;;;;;;10336059;28;20068;-72
2023/02/09 00:57:07;;;;;;;124.72;70.55;;;;;;;;;;10332235;28;20047;-72
2023/02/09 01:02:05;;;;;;;65.00;37.50;;;;;;;;;;10335663;28;20066;-72
2023/02/09 01:07:04;;;;;;;44.97;27.92;;;;;;;;;;10333773;28;20075;-72
2023/02/09 01:12:02;;;;;;;30.70;19.92;;;;;;;;;;10350998;28;20072;-72
2023/02/09 01:17:01;;;;;;;31.00;22.23;;;;;;;;;;10334162;28;20078;-72
2023/02/09 01:21:59;;;;;;;31.85;18.92;;;;;;;;;;10335537;28;20084;-70
2023/02/09 01:26:59;;;;;;;33.90;19.48;;;;;;;;;;10334192;28;20496;-72
2023/02/09 01:31:57;;;;;;;32.60;21.85;;;;;;;;;;10337288;28;20571;-71
2023/02/09 01:36:55;;;;;;;39.55;23.80;;;;;;;;;;10314403;28;20087;-71
2023/02/09 01:41:56;;;;;;;44.70;25.40;;;;;;;;;;10332891;28;20060;-71
2023/02/09 01:46:56;;;;;;;59.13;32.17;;;;;;;;;;10334750;28;20493;-72
2023/02/09 01:51:56;;;;;;;49.75;30.10;;;;;;;;;;10334471;28;20044;-71
2023/02/09 01:56:57;;;;;;;57.72;32.33;;;;;;;;;;10313847;28;20068;-71
2023/02/09 02:01:57;;;;;;;39.40;24.85;;;;;;;;;;10331616;28;20071;-71
2023/02/09 02:06:58;;;;;;;48.40;26.65;;;;;;;;;;10331137;28;20069;-72
2023/02/09 02:11:56;;;;;;;36.13;22.83;;;;;;;;;;10334783;28;20068;-72
2023/02/09 02:16:59;;;;;;;32.42;22.08;;;;;;;;;;10333814;28;20060;-71
2023/02/09 02:22:21;;;;;;;32.13;20.08;;;;;;;;;;10332255;28;20056;-72
2023/02/09 02:27:28;;;;;;;56.55;28.85;;;;;;;;;;10330763;28;20576;-72
2023/02/09 02:32:36;;;;;;;93.18;43.72;;;;;;;;;;10331526;28;20551;-72
2023/02/09 02:37:41;;;;;;;53.15;28.88;;;;;;;;;;10325970;28;20068;-72
2023/02/09 02:42:50;;;;;;;54.97;28.80;;;;;;;;;;10331595;28;20594;-72
2023/02/09 02:47:55;;;;;;;61.75;31.20;;;;;;;;;;10330615;28;20582;-72
2023/02/09 02:52:55;;;;;;;51.50;25.40;;;;;;;;;;10334878;28;20086;-72
2023/02/09 02:57:55;;;;;;;47.08;26.75;;;;;;;;;;10330492;28;20079;-72
2023/02/09 03:02:59;;;;;;;42.03;25.75;;;;;;;;;;10330143;28;20448;-72
2023/02/09 03:07:57;;;;;;;44.70;28.17;;;;;;;;;;10334673;28;20087;-72
2023/02/09 03:13:01;;;;;;;42.65;22.35;;;;;;;;;;10330982;28;20074;-72
2023/02/09 03:18:06;;;;;;;20.98;15.88;;;;;;;;;;10324825;28;20570;-73
2023/02/09 03:23:07;;;;;;;29.65;17.27;;;;;;;;;;10313852;28;20079;-72
2023/02/09 03:28:07;;;;;;;33.25;18.90;;;;;;;;;;10331644;28;20512;-73
2023/02/09 03:33:18;;;;;;;29.88;18.10;;;;;;;;;;10329594;28;20110;-72
2023/02/09 03:38:16;;;;;;;29.10;18.23;;;;;;;;;;10329669;28;20446;-72
2023/02/09 03:43:14;;;;;;;25.73;18.70;;;;;;;;;;10329141;28;20484;-71
2023/02/09 03:48:14;;;;;;;31.00;17.77;;;;;;;;;;10330504;28;20071;-71
2023/02/09 03:53:12;;;;;;;29.80;19.30;;;;;;;;;;10330612;28;20076;-71
2023/02/09 03:58:10;;;;;;;27.35;17.88;;;;;;;;;;10329645;28;20520;-71
2023/02/09 04:03:08;;;;;;;25.50;18.40;;;;;;;;;;10330619;28;20075;-71
2023/02/09 04:08:08;;;;;;;39.88;23.17;;;;;;;;;;10328562;28;20080;-71
2023/02/09 04:13:06;;;;;;;39.28;23.17;;;;;;;;;;10335722;28;20078;-71
2023/02/09 04:18:04;;;;;;;29.45;18.77;;;;;;;;;;10338268;28;20524;-71
2023/02/09 04:23:02;;;;;;;27.85;16.00;;;;;;;;;;10335936;28;20060;-71
2023/02/09 04:28:02;;;;;;;25.33;16.00;;;;;;;;;;10332652;28;20087;-71
2023/02/09 04:33:00;;;;;;;24.35;15.38;;;;;;;;;;10331140;28;20084;-71
2023/02/09 04:37:58;;;;;;;21.55;14.30;;;;;;;;;;10334861;28;20068;-71
2023/02/09 04:42:56;;;;;;;21.27;14.00;;;;;;;;;;10337845;28;20060;-71
2023/02/09 04:47:56;;;;;;;20.63;13.18;;;;;;;;;;10335387;28;20075;-72
2023/02/09 04:52:54;;;;;;;28.75;14.45;;;;;;;;;;10335188;28;20067;-72
2023/02/09 05:03:09;;;;;;;24.38;15.40;;;;;;;;;;10336107;28;20490;-72
2023/02/09 05:08:07;;;;;;;22.05;15.30;;;;;;;;;;10334739;28;20068;-71
2023/02/09 05:13:05;;;;;;;26.42;16.05;;;;;;;;;;10334180;28;20064;-72
2023/02/09 05:18:04;;;;;;;23.92;15.25;;;;;;;;;;10333911;28;20048;-72
2023/02/09 05:23:03;;;;;;;25.85;15.75;;;;;;;;;;10332467;28;20477;-72
2023/02/09 05:28:01;;;;;;;23.35;14.40;;;;;;;;;;10338596;28;20083;-72
2023/02/09 05:33:01;;;;;;;21.95;13.45;;;;;;;;;;10326513;28;20119;-69
2023/02/09 05:38:00;;;;;;;24.30;16.33;;;;;;;;;;10330402;28;20580;-72
2023/02/09 05:43:01;;;;;;;24.25;16.63;;;;;;;;;;10335882;28;20072;-71
2023/02/09 05:47:59;;;;;;;25.00;15.55;;;;;;;;;;10329639;28;20110;-72
2023/02/09 05:52:58;;;;;;;26.13;17.77;;;;;;;;;;10328512;28;20072;-72
2023/02/09 05:57:56;;;;;;;38.38;22.27;;;;;;;;;;10332007;28;20083;-71
2023/02/09 06:02:57;;;;;;;29.17;19.67;;;;;;;;;;10335816;28;20059;-71
2023/02/09 06:07:56;;;;;;;45.42;28.55;;;;;;;;;;10342097;28;20068;-71
2023/02/09 06:12:54;;;;;;;48.15;28.50;;;;;;;;;;10350725;28;20072;-71
2023/02/09 06:17:53;;;;;;;53.63;30.50;;;;;;;;;;10335847;28;20458;-72
2023/02/09 06:22:52;;;;;;;59.63;35.75;;;;;;;;;;10324589;28;20076;-72
2023/02/09 06:27:50;;;;;;;64.38;45.45;;;;;;;;;;10323981;28;20072;-72
2023/02/09 06:32:49;;;;;;;104.70;61.35;;;;;;;;;;10328709;28;20080;-72
2023/02/09 06:37:47;;;;;;;67.60;35.35;;;;;;;;;;10330474;28;20076;-73
2023/02/09 06:42:46;;;;;;;77.40;39.42;;;;;;;;;;10325976;28;20075;-72
2023/02/09 06:47:45;;;;;;;94.28;59.47;;;;;;;;;;10331196;28;20072;-72
2023/02/09 06:52:44;;;;;;;86.70;56.50;;;;;;;;;;10329449;28;20063;-73
2023/02/09 06:57:42;;;;;;;99.18;59.55;;;;;;;;;;10326646;28;20487;-73
2023/02/09 07:02:42;;;;;;;95.65;52.22;;;;;;;;;;10329653;28;20143;-71
2023/02/09 07:07:41;;;;;;;72.28;45.58;;;;;;;;;;10329849;28;20580;-73
2023/02/09 07:12:42;;;;;;;35.50;22.17;;;;;;;;;;10335117;28;20072;-73
2023/02/09 07:17:42;;;;;;;38.35;22.88;;;;;;;;;;10330152;28;20561;-72
2023/02/09 07:22:40;;;;;;;50.50;31.08;;;;;;;;;;10321953;28;20152;-72
2023/02/09 07:27:42;;;;;;;56.15;33.88;;;;;;;;;;10321787;28;20075;-72
2023/02/09 07:32:42;;;;;;;44.42;29.00;;;;;;;;;;10324088;28;20068;-71
2023/02/09 07:37:40;;;;;;;34.92;19.42;;;;;;;;;;10321805;28;20474;-72
2023/02/09 07:42:38;;;;;;;31.65;18.13;;;;;;;;;;10323728;28;20068;-71
2023/02/09 07:47:38;;;;;;;30.52;18.25;;;;;;;;;;10327590;28;20095;-72
2023/02/09 07:52:37;;;;;;;31.17;21.20;;;;;;;;;;10334406;28;20064;-72
2023/02/09 07:57:36;;;;;;;46.13;27.73;;;;;;;;;;10333732;28;20094;-70
2023/02/09 08:02:35;;;;;;;33.95;23.08;;;;;;;;;;10333369;28;20489;-70
2023/02/09 08:07:33;;;;;;;33.38;21.33;;;;;;;;;;10350647;28;20072;-72
2023/02/09 08:17:49;;;;;;;42.25;20.50;;;;;;;;;;10340904;28;20068;-70
2023/02/09 08:22:49;;;;;;;51.70;29.35;;;;;;;;;;10335131;28;20064;-71
2023/02/09 08:27:48;;;;;;;36.13;21.58;;;;;;;;;;10335340;28;20072;-71
2023/02/09 08:32:47;;;;;;;44.05;22.92;;;;;;;;;;10335258;28;20079;-71
2023/02/09 08:37:45;;;;;;;61.72;31.90;;;;;;;;;;10318021;28;20490;-71
2023/02/09 08:42:43;;;;;;;44.75;26.23;;;;;;;;;;10334976;28;20072;-69
2023/02/09 08:47:43;;;;;;;44.33;25.67;;;;;;;;;;10337046;28;20694;-71
2023/02/09 08:52:41;;;;;;;38.70;22.00;;;;;;;;;;10354774;28;20494;-71
2023/02/09 08:57:39;;;;;;;43.13;23.90;;;;;;;;;;10344356;28;20106;-73
2023/02/09 09:02:42;;;;;;;40.78;26.70;;;;;;;;;;10334988;28;20060;-72
2023/02/09 09:07:40;;;;;;;30.92;22.80;;;;;;;;;;10352297;28;20067;-72
2023/02/09 09:12:39;;;;;;;34.92;19.52;;;;;;;;;;10347572;28;20063;-72
2023/02/09 09:17:37;;;;;;;32.88;22.40;;;;;;;;;;10326370;28;20075;-72
2023/02/09 09:22:36;;;;;;;47.03;23.95;;;;;;;;;;10325850;28;20070;-72
2023/02/09 09:27:35;;;;;;;36.72;20.42;;;;;;;;;;10328595;28;20083;-72
2023/02/09 09:32:33;;;;;;;24.73;15.65;;;;;;;;;;10333055;28;20505;-72
2023/02/09 09:37:32;;;;;;;28.15;17.13;;;;;;;;;;10328649;28;20517;-71
2023/02/09 09:42:34;;;;;;;27.17;18.35;;;;;;;;;;10331350;28;20075;-71
2023/02/09 09:47:34;;;;;;;26.42;17.55;;;;;;;;;;10331004;28;20102;-73
2023/02/09 09:52:36;;;;;;;28.70;17.85;;;;;;;;;;10331029;28;20513;-72
2023/02/09 09:57:38;;;;;;;32.45;21.65;;;;;;;;;;10333669;28;20083;-71
2023/02/09 10:02:38;;;;;;;33.65;21.88;;;;;;;;;;10329292;28;20071;-72
2023/02/09 10:07:37;;;;;;;26.23;16.00;;;;;;;;;;10334594;28;20086;-70
2023/02/09 10:12:38;;;;;;;23.88;16.52;;;;;;;;;;10331547;28;20075;-69
2023/02/09 10:17:36;;;;;;;37.05;23.52;;;;;;;;;;10334513;28;20548;-72
2023/02/09 10:22:34;;;;;;;18.05;12.70;;;;;;;;;;10332066;28;20063;-72
2023/02/09 10:27:32;;;;;;;23.55;15.68;;;;;;;;;;10334005;28;20075;-71
2023/02/09 10:32:38;;;;;;;19.02;14.90;;;;;;;;;;10334032;28;20088;-71
2023/02/09 10:37:37;;;;;;;23.08;14.27;;;;;;;;;;10326451;28;20064;-71
2023/02/09 10:42:36;;;;;;;36.03;20.15;;;;;;;;;;10330009;28;20067;-71
2023/02/09 10:47:35;;;;;;;29.02;19.73;;;;;;;;;;10331713;28;20488;-70
2023/02/09 10:52:35;;;;;;;17.48;13.18;;;;;;;;;;10310645;28;20040;-71
2023/02/09 10:57:35;;;;;;;23.80;16.33;;;;;;;;;;10313179;28;20055;-70
2023/02/09 11:02:35;;;;;;;19.80;13.90;;;;;;;;;;10333225;28;20136;-71
2023/02/09 11:07:37;;;;;;;28.60;18.27;;;;;;;;;;10328825;28;20071;-70
2023/02/09 11:12:35;;;;;;;34.72;23.23;;;;;;;;;;10311767;28;20080;-70
2023/02/09 11:17:36;;;;;;;28.58;17.90;;;;;;;;;;10329534;28;20067;-71
2023/02/09 11:22:53;;;;;;;28.73;16.83;;;;;;;;;;10331988;28;20063;-71
2023/02/09 11:28:09;;;;;;;15.20;11.27;;;;;;;;;;10339885;28;20078;-71
2023/02/09 11:33:10;;;;;;;22.70;13.93;;;;;;;;;;10333962;28;20222;-71
2023/02/09 11:38:13;;;;;;;27.45;20.63;;;;;;;;;;10338856;28;20496;-71
2023/02/09 11:43:14;;;;;;;26.30;16.45;;;;;;;;;;10338237;28;20529;-71
2023/02/09 11:48:16;;;;;;;19.52;14.70;;;;;;;;;;10337510;28;20084;-71
2023/02/09 11:53:20;;;;;;;16.70;13.73;;;;;;;;;;10335316;28;20080;-71
2023/02/09 11:58:33;;;;;;;12.02;9.65;;;;;;;;;;10337156;28;20083;-71
2023/02/09 12:03:31;;;;;;;19.85;11.93;;;;;;;;;;10329424;28;20092;-71
2023/02/09 12:08:37;;;;;;;15.45;12.13;;;;;;;;;;10337896;28;20162;-70
2023/02/09 12:13:39;;;;;;;21.45;14.52;;;;;;;;;;10335459;28;20082;-71
2023/02/09 12:18:40;;;;;;;22.63;16.83;;;;;;;;;;10336356;28;20517;-71
2023/02/09 12:23:39;;;;;;;23.50;13.38;;;;;;;;;;10338330;28;20076;-71
2023/02/09 12:28:41;;;;;;;23.48;14.45;;;;;;;;;;10336338;28;20060;-71
2023/02/09 12:33:39;;;;;;;23.42;13.38;;;;;;;;;;10318438;28;20056;-71
2023/02/09 12:38:58;;;;;;;14.27;10.98;;;;;;;;;;10336718;28;20067;-70
2023/02/09 12:44:04;;;;;;;;;;;;;;;;;;10337654;28;20072;-71
2023/02/09 12:49:18;;;;;;;27.13;15.45;;;;;;;;;;10330993;28;19963;-71
2023/02/09 12:54:29;;;;;;;17.57;12.43;;;;;;;;;;10316204;28;20091;-71
2023/02/09 12:59:27;;;;;;;15.73;11.43;;;;;;;;;;10334110;28;20075;-70
2023/02/09 13:04:25;;;;;;;15.75;11.32;;;;;;;;;;10334164;28;20063;-70
2023/02/09 13:09:25;;;;;;;24.05;14.90;;;;;;;;;;10334310;28;20083;-70
2023/02/09 13:14:25;;;;;;;25.80;15.50;;;;;;;;;;10335758;28;20067;-70
2023/02/09 13:19:38;;;;;;;18.30;11.25;;;;;;;;;;10333917;28;20427;-69
2023/02/09 13:24:48;;;;;;;15.38;11.43;;;;;;;;;;10327359;28;20079;-70
2023/02/09 13:29:52;;;;;;;17.02;11.00;;;;;;;;;;10332138;28;20072;-70
2023/02/09 13:34:54;;;;;;;12.35;8.88;;;;;;;;;;10331436;28;20101;-70
2023/02/09 13:39:57;;;;;;;13.85;9.63;;;;;;;;;;10336058;28;20072;-70
2023/02/09 13:44:57;;;;;;;15.38;10.90;;;;;;;;;;10332238;28;20064;-70
2023/02/09 13:49:57;;;;;;;19.08;13.43;;;;;;;;;;10333221;28;20492;-70
2023/02/09 13:54:55;;;;;;;18.02;11.07;;;;;;;;;;10333310;28;20073;-70
2023/02/09 13:59:54;;;;;;;12.25;10.30;;;;;;;;;;10334591;28;20360;-70
2023/02/09 14:04:55;;;;;;;18.10;13.63;;;;;;;;;;10332401;28;20102;-71
2023/02/09 14:09:56;;;;;;;15.52;11.88;;;;;;;;;;10334968;28;20087;-71
2023/02/09 14:20:23;;;;;;;22.13;17.00;;;;;;;;;;10331823;28;20066;-70
2023/02/09 14:25:22;;;;;;;16.55;13.18;;;;;;;;;;10330692;28;20068;-71
2023/02/09 14:30:21;;;;;;;21.67;19.00;;;;;;;;;;10333592;28;20071;-71
2023/02/09 14:35:22;;;;;;;28.80;20.17;;;;;;;;;;10330398;28;20405;-71
2023/02/09 14:40:28;;;;;;;16.55;12.90;;;;;;;;;;10330072;28;20481;-70
2023/02/09 14:45:28;;;;;;;20.08;13.73;;;;;;;;;;10333865;28;20110;-70
2023/02/09 14:50:27;;;;;;;25.33;14.80;;;;;;;;;;10333352;28;20086;-70
2023/02/09 14:55:27;;;;;;;18.15;14.45;;;;;;;;;;10332012;28;20071;-70
2023/02/09 15:00:27;;;;;;;53.75;29.02;;;;;;;;;;10330224;28;20071;-70
2023/02/09 15:05:25;;;;;;;21.67;14.90;;;;;;;;;;10331754;28;20064;-70
2023/02/09 15:10:27;;;;;;;24.58;18.15;;;;;;;;;;10310698;28;20095;-70
2023/02/09 15:15:25;;;;;;;31.50;20.38;;;;;;;;;;10328998;28;20082;-70
2023/02/09 15:20:24;;;;;;;29.98;22.25;;;;;;;;;;10330113;28;20067;-69
2023/02/09 15:25:22;;;;;;;40.40;24.00;;;;;;;;;;10329253;28;20063;-72
2023/02/09 15:30:23;;;;;;;31.05;20.70;;;;;;;;;;10328611;28;20075;-71
2023/02/09 15:35:22;;;;;;;23.98;16.42;;;;;;;;;;10326108;28;20087;-72
2023/02/09 15:50:58;;;;;;;46.33;30.05;;;;;;;;;;10329493;28;20072;-72
2023/02/09 15:55:56;;;;;;;59.13;33.53;;;;;;;;;;10328385;28;20513;-72
2023/02/09 16:00:57;;;;;;;49.88;31.95;;;;;;;;;;10329909;28;20071;-72
2023/02/09 16:05:58;;;;;;;46.97;31.40;;;;;;;;;;10338375;28;20063;-72
2023/02/09 16:10:56;;;;;;;55.75;35.65;;;;;;;;;;10337711;28;20524;-72
2023/02/09 16:15:54;;;;;;;67.47;41.00;;;;;;;;;;10335984;28;20067;-72
2023/02/09 16:21:13;;;;;;;62.22;40.35;;;;;;;;;;10332957;28;20078;-72
2023/02/09 16:26:12;;;;;;;254.55;133.85;;;;;;;;;;10317264;28;20114;-72
2023/02/09 16:31:10;;;;;;;79.75;44.85;;;;;;;;;;10335510;28;20508;-72
2023/02/09 16:36:13;;;;;;;79.25;47.47;;;;;;;;;;10336047;28;20084;-72
2023/02/09 16:41:45;;;;;;;275.80;139.02;;;;;;;;;;10335121;28;20052;-72
2023/02/09 16:46:32;;;;;;;149.63;78.88;;;;;;;;;;10346045;28;20078;-72
2023/02/09 16:51:32;;;;;;;95.95;51.55;;;;;;;;;;10343755;28;20075;-71
2023/02/09 16:56:30;;;;;;;201.40;93.43;;;;;;;;;;10348891;28;20090;-70
2023/02/09 17:01:29;;;;;;;79.35;42.05;;;;;;;;;;10350710;28;20064;-72
2023/02/09 17:06:28;;;;;;;108.72;51.00;;;;;;;;;;10351609;28;20072;-71
2023/02/09 17:11:28;;;;;;;148.18;71.55;;;;;;;;;;10349637;28;20075;-71
2023/02/09 17:16:30;;;;;;;42.70;28.33;;;;;;;;;;10329503;28;20078;-71
2023/02/09 17:21:30;;;;;;;99.28;50.03;;;;;;;;;;10330931;28;20477;-71
2023/02/09 17:26:29;;;;;;;64.15;37.17;;;;;;;;;;10331057;28;20080;-71
2023/02/09 17:31:29;;;;;;;136.27;68.47;;;;;;;;;;10335941;28;20094;-72
2023/02/09 17:36:42;;;;;;;156.45;84.28;;;;;;;;;;10349861;28;20083;-72
2023/02/09 17:41:43;;;;;;;81.68;44.80;;;;;;;;;;10342202;28;20060;-71
2023/02/09 17:46:42;;;;;;;56.03;34.15;;;;;;;;;;10342931;28;20071;-72
2023/02/09 17:51:41;;;;;;;53.58;31.35;;;;;;;;;;10336930;28;20691;-71
2023/02/09 17:56:39;;;;;;;143.70;74.47;;;;;;;;;;10345164;28;20068;-72
2023/02/09 18:01:40;;;;;;;100.50;55.58;;;;;;;;;;10344024;28;20063;-72
2023/02/09 18:06:39;;;;;;;48.47;32.53;;;;;;;;;;10342336;28;20066;-71
2023/02/09 18:11:54;;;;;;;93.75;54.85;;;;;;;;;;10345081;28;20078;-71
2023/02/09 18:16:54;;;;;;;48.65;32.45;;;;;;;;;;10339362;28;20068;-71
2023/02/09 18:21:53;;;;;;;282.48;122.63;;;;;;;;;;10337784;28;20075;-72
2023/02/09 18:26:51;;;;;;;237.82;113.03;;;;;;;;;;10337842;28;20082;-71
2023/02/09 18:31:52;;;;;;;140.23;67.80;;;;;;;;;;10334237;28;21382;-71
2023/02/09 18:36:51;;;;;;;215.00;106.70;;;;;;;;;;10331509;28;20072;-72
2023/02/09 18:41:52;;;;;;;146.48;77.72;;;;;;;;;;10331784;28;20071;-71
2023/02/09 18:46:52;;;;;;;131.40;68.25;;;;;;;;;;10330445;28;20667;-72
2023/02/09 18:51:50;;;;;;;196.27;92.90;;;;;;;;;;10334988;28;20079;-71
2023/02/09 18:56:52;;;;;;;158.38;78.43;;;;;;;;;;10330246;28;20090;-71
2023/02/09 19:01:50;;;;;;;60.03;35.35;;;;;;;;;;10327774;28;20075;-73
2023/02/09 19:06:48;;;;;;;115.85;56.97;;;;;;;;;;10329824;28;20056;-72
2023/02/09 19:11:48;;;;;;;58.65;36.03;;;;;;;;;;10334831;28;20079;-71
2023/02/09 19:16:47;;;;;;;65.15;36.05;;;;;;;;;;10332353;28;20098;-70
2023/02/09 19:21:46;;;;;;;53.45;28.92;;;;;;;;;;10332964;28;20063;-72
2023/02/09 19:26:44;;;;;;;61.13;31.10;;;;;;;;;;10331149;28;20075;-72
2023/02/09 19:31:42;;;;;;;37.13;23.17;;;;;;;;;;10333476;28;20083;-71
2023/02/09 19:36:42;;;;;;;54.17;32.83;;;;;;;;;;10333448;28;20071;-71
2023/02/09 19:41:40;;;;;;;47.20;29.13;;;;;;;;;;10331050;28;20961;-71
2023/02/09 19:46:40;;;;;;;28.67;19.42;;;;;;;;;;10341827;28;20056;-71
2023/02/09 19:51:38;;;;;;;25.55;16.35;;;;;;;;;;10339663;28;20068;-72
2023/02/09 19:56:38;;;;;;;21.38;16.45;;;;;;;;;;10337083;28;20470;-72
2023/02/09 20:01:37;;;;;;;24.92;17.33;;;;;;;;;;10341086;28;20477;-71
2023/02/09 20:06:35;;;;;;;30.30;19.23;;;;;;;;;;10342079;28;20079;-71
2023/02/09 20:11:33;;;;;;;83.18;46.38;;;;;;;;;;10341005;28;20078;-70
2023/02/09 20:16:33;;;;;;;64.25;37.92;;;;;;;;;;10346113;28;20075;-71
2023/02/09 20:21:31;;;;;;;79.55;45.67;;;;;;;;;;10339158;28;20481;-71
2023/02/09 20:26:31;;;;;;;102.93;58.65;;;;;;;;;;10340330;28;20493;-71
2023/02/09 20:31:31;;;;;;;159.88;80.13;;;;;;;;;;10340835;28;20071;-70
2023/02/09 20:36:31;;;;;;;230.23;93.95;;;;;;;;;;10337038;28;20060;-69
2023/02/09 20:41:29;;;;;;;265.17;107.50;;;;;;;;;;10337509;28;20496;-70
2023/02/09 20:51:46;;;;;;;215.25;90.40;;;;;;;;;;10336311;28;20525;-71
2023/02/09 20:56:44;;;;;;;101.28;43.65;;;;;;;;;;10333493;28;20098;-72
2023/02/09 21:01:42;;;;;;;127.35;59.50;;;;;;;;;;10338918;28;20075;-72
2023/02/09 21:06:40;;;;;;;100.75;48.50;;;;;;;;;;10334547;28;20110;-72
2023/02/09 21:11:40;;;;;;;155.52;77.47;;;;;;;;;;10336102;28;20493;-71
2023/02/09 21:16:38;;;;;;;101.20;54.58;;;;;;;;;;10335767;28;20476;-71
2023/02/09 21:21:37;;;;;;;147.52;78.95;;;;;;;;;;10338778;28;20076;-70
2023/02/09 21:26:40;;;;;;;80.38;46.45;;;;;;;;;;10341458;28;20071;-71
2023/02/09 21:31:39;;;;;;;62.92;39.05;;;;;;;;;;10337067;28;20492;-71
2023/02/09 21:36:37;;;;;;;59.33;32.50;;;;;;;;;;10332177;28;20068;-72
2023/02/09 21:46:53;;;;;;;28.08;16.63;;;;;;;;;;10336403;28;20469;-72
2023/02/09 21:51:51;;;;;;;32.63;21.05;;;;;;;;;;10330575;28;20670;-70
2023/02/09 21:56:50;;;;;;;49.58;31.42;;;;;;;;;;10334409;28;20063;-71
2023/02/09 22:01:48;;;;;;;179.73;98.07;;;;;;;;;;10337466;28;20074;-71
2023/02/09 22:06:47;;;;;;;49.33;27.75;;;;;;;;;;10330803;28;20071;-71
2023/02/09 22:11:46;;;;;;;62.03;34.35;;;;;;;;;;10324145;28;20147;-71
2023/02/09 22:16:45;;;;;;;20.55;14.55;;;;;;;;;;10318661;28;20071;-71
2023/02/09 22:21:44;;;;;;;40.47;26.73;;;;;;;;;;10322712;28;20072;-70
2023/02/09 22:26:44;;;;;;;58.65;35.40;;;;;;;;;;10331257;28;20075;-70
2023/02/09 22:31:42;;;;;;;148.65;76.75;;;;;;;;;;10332639;28;20091;-70
2023/02/09 22:36:40;;;;;;;98.88;58.85;;;;;;;;;;10330191;28;20626;-70
2023/02/09 22:41:38;;;;;;;72.50;41.50;;;;;;;;;;10330860;28;20060;-70
2023/02/09 22:46:39;;;;;;;58.80;32.35;;;;;;;;;;10332447;28;20127;-69
2023/02/09 22:51:37;;;;;;;49.35;30.77;;;;;;;;;;10329615;28;20081;-70
2023/02/09 22:56:35;;;;;;;61.15;35.08;;;;;;;;;;10329258;28;20067;-71
2023/02/09 23:01:33;;;;;;;171.57;85.20;;;;;;;;;;10330480;28;20140;-70
2023/02/09 23:06:33;;;;;;;193.82;98.88;;;;;;;;;;10329854;28;20079;-71
2023/02/09 23:11:31;;;;;;;231.73;108.28;;;;;;;;;;10329875;28;20076;-71
2023/02/09 23:16:30;;;;;;;146.43;74.88;;;;;;;;;;10310626;28;20072;-70
2023/02/09 23:21:30;;;;;;;112.00;61.55;;;;;;;;;;10329774;28;20076;-71
2023/02/09 23:26:30;;;;;;;88.53;50.50;;;;;;;;;;10329942;28;20076;-70
2023/02/09 23:31:28;;;;;;;37.83;23.75;;;;;;;;;;10327942;28;20068;-70
2023/02/09 23:36:27;;;;;;;47.10;30.70;;;;;;;;;;10328707;28;20075;-70
2023/02/09 23:41:26;;;;;;;62.20;37.92;;;;;;;;;;10330967;28;20083;-70
2023/02/09 23:46:26;;;;;;;63.25;40.42;;;;;;;;;;10326451;28;20075;-70
2023/02/09 23:51:28;;;;;;;52.58;34.65;;;;;;;;;;10329698;28;20075;-69
2023/02/09 23:56:26;;;;;;;39.25;24.20;;;;;;;;;;10329374;28;20064;-70
